Messages - map view · info · telemetry · weather · raw · status · beacons · messages · bulletins · browse · moving · my account
Callsign:
Show:

Loading message packets...

APRS messages are stored for 14 days. It is possible to search using wildcards (*?) after a prefix.

2019-04-24 03:37:43 EDT: SJTFFW>NWS-WARN: 240815z,FLASH_FLOOD,TXC049-083
2019-04-24 03:37:43 EDT: SJTFFW>NWS_WARN: 240815z,FLASH_FLOOD,TXC049-083
2019-04-24 03:38:37 EDT: KA6ECT>KA6ECT: 1182-Trfc Collision-No Inj at Sr134 W / N Brand Blvd
2019-04-24 03:39:19 EDT: DB0TS-10>DB0TS-9: T#001,000,000,000,000,000,00000000,Test
2019-04-24 03:40:09 EDT: LU1HVK-1>APRS: lu1hvk@qsl.net Saludos de Leones - Cordoba AR...
2019-04-24 03:40:12 EDT: VK2GJ-2>VK2GJ-7: Directs=VK2RHR-1 VK2AMW-1
2019-04-24 03:40:42 EDT: FWDSVR>NWS-WARN: 240815z,SVR_STORM,TXC099-193
2019-04-24 03:40:42 EDT: FWDSVR>NWS_WARN: 240815z,SVR_STORM,TXC099-193
2019-04-24 03:42:12 EDT: VK2GJ-2>VK2GJ-7: Directs=VK2RHR-1 VK2AMW-1 VK2YMI-9
2019-04-24 03:42:16 EDT: G0RSQ>G4FKH: A,-102.9,-104.6,-105.8,B,-93.4,-96.5,-98.1,C,-102.4,-112.7,-113.8,D,-96.3,-102.7,-104,E,-103.8,-113.1,-114.4
2019-04-24 03:42:46 EDT: SQ5BLK-13>SP5VR: szkoda kasy
2019-04-24 03:42:47 EDT: KIMMWW>BOM_WARN: 251600z,WIND,WA_MW001
2019-04-24 03:42:47 EDT: KIMMWW>BOMKIM: Strong Wind Warning for coastal waters between WA-NT Border
2019-04-24 03:42:47 EDT: KIMMWW>BOMKIM: and Kuri Bay for Thursday
2019-04-24 03:42:48 EDT: VMWMWW>BOM_WARN: 251400z,WIND,VIC_MW001>005
2019-04-24 03:42:48 EDT: VMWMWW>BOMVMW: Strong Wind Warning for coastal waters between SA-VIC
2019-04-24 03:42:48 EDT: VMWMWW>BOMVMW: Border and 60nm east of Gabo Island and for Port Phillip
2019-04-24 03:42:48 EDT: VMWMWW>BOMVMW: for Thursday
2019-04-24 03:42:51 EDT: SQ5BLK-13>SP5VR: na takie wynalazki
2019-04-24 03:44:31 EDT: SP5VR>SQ5BLK-13: rozumiem
2019-04-24 03:44:35 EDT: SP5VR>SQ5BLK-13: dzieki
2019-04-24 03:44:39 EDT: DB0LUH-1>LU1HVK-1: rejUISS54}
2019-04-24 03:45:22 EDT: TMWMWW>BOM_WARN: 251400z,WIND,TAS_MW004>005-011-013>014
2019-04-24 03:45:22 EDT: TECMWW>BOM_WARN: 251400z,WIND,TAS_MW004>005-011-013>014
2019-04-24 03:45:22 EDT: TMWMWW>BOMTMW: Strong Wind Warning for coastal waters between St Helens
2019-04-24 03:45:22 EDT: TMWMWW>BOMTMW: Point and Tasman Island and for Frederick Henry Bay and
2019-04-24 03:45:22 EDT: TMWMWW>BOMTMW: Norfolk Bays, Storm Bay and Channel for Thursday
2019-04-24 03:45:22 EDT: TECMWW>BOMTEC: Strong Wind Warning for coastal waters between St Helens
2019-04-24 03:45:22 EDT: TECMWW>BOMTEC: Point and Tasman Island and for Frederick Henry Bay and
2019-04-24 03:45:22 EDT: TECMWW>BOMTEC: Norfolk Bays, Storm Bay and Channel for Thursday
2019-04-24 03:45:42 EDT: FWDSVR>NWS-WARN: 240815z,SVR_STORM,TXC099-193
2019-04-24 03:45:42 EDT: FWDSVR>NWS_WARN: 240815z,SVR_STORM,TXC099-193
2019-04-24 03:46:09 EDT: LU1HVK-1>APRS: lu1hvk@qsl.net Saludos de Leones - Cordoba AR...
2019-04-24 03:47:12 EDT: VK2GJ-2>VK2GJ-7: Directs=VK2RHR-1 VK2AMW-1 VK2YMI-9
2019-04-24 03:47:27 EDT: KM4KAW-9>KM4KAW: SitRep: 10.644 61.25f
2019-04-24 03:47:42 EDT: SJTFFW>NWS-WARN: 240815z,FLASH_FLOOD,TXC049-083
2019-04-24 03:47:42 EDT: SJTFFW>NWS_WARN: 240815z,FLASH_FLOOD,TXC049-083
2019-04-24 03:48:10 EDT: DB0TS-10>DB0TS-9: T#001,000,000,000,000,000,00000000,Test
2019-04-24 03:48:15 EDT: VK2GJ-5>VK2GJ-7: Directs=VK2RHR-1 VK2AMW-1 VK2YMI-9
2019-04-24 03:49:35 EDT: N7QME-2>N7QME: dew 44.1 45.0 38.7 43.0 44.7 44.5 45.2 44.2
2019-04-24 03:50:12 EDT: VK2GJ-2>VK2GJ-7: Directs=VK2RHR-1 VK2AMW-1 VK2BWI-3 VK2YMI-9
2019-04-24 03:50:50 EDT: SQ5BLK-13>SP5VR: powiem inaczej
2019-04-24 03:51:09 EDT: SQ5BLK-13>SP5VR: poczekaj zadzwonie
2019-04-24 03:51:31 EDT: SP5VR>SQ5BLK-13: ok
2019-04-24 03:52:09 EDT: LU1HVK-1>APRS: lu1hvk@qsl.net Saludos de Leones - Cordoba AR...
2019-04-24 03:52:12 EDT: VK2GJ-2>VK2GJ-7: Directs=VK2RHR-1 VK2AMW-1 VK2BWI-3
2019-04-24 03:52:27 EDT: G0RSQ>G4FKH: A,-102.7,-104.3,-105.7,B,-88.4,-96.3,-98.2,C,-101.5,-112,-113,D,-101,-102.8,-104.4,E,-108,-113,-114.2
2019-04-24 03:52:27 EDT: KM4KAW-9>KM4KAW: SitRep: 11.28264 61.36f
2019-04-24 03:52:37 EDT: SHLBTP>SHLBTP: Info - Cabinet Temp = 63.1F Vcc = 13.6V
2019-04-24 03:52:39 EDT: DB0LUH-1>LU1HVK-1: rejUISS54}
< previous
FAQ · Blog · Discussion group · Linking to aprs.fi · AIS sites · Service status · Database statistics · Advertising on aprs.fi · Technical details · API · Change log · Planned changes · Credits and thanks · Terms Of Service · iPhone/iPad APRS